Time;durP1;ratioP1;P1;durP2;ratioP2;P2;SDS_P1;SDS_P2;PMS_P1;PMS_P2;Temp;Humidity;BMP_temperature;BMP_pressure;BME280_temperature;BME280_humidity;BME280_pressure;Samples;Min_cycle;Max_cycle;Signal;HPM_P1;HPM_P2
2023/09/11 00:01:31;;;;;;;18.17;11.07;;;;;;;17.98;100.00;100050.44;5048490;28;20670;-70
2023/09/11 00:03:57;;;;;;;11.80;10.30;;;;;;;17.94;100.00;100053.44;5045699;28;20224;-71
2023/09/11 00:06:23;;;;;;;19.63;11.30;;;;;;;17.89;100.00;100049.44;5071494;28;20169;-71
2023/09/11 00:08:48;;;;;;;16.13;10.83;;;;;;;17.87;100.00;100050.53;5057717;28;20259;-70
2023/09/11 00:11:13;;;;;;;18.57;11.23;;;;;;;17.81;100.00;100044.09;5058989;28;20304;-71
2023/09/11 00:13:38;;;;;;;16.50;11.17;;;;;;;17.82;100.00;100053.50;5061902;28;20195;-70
2023/09/11 00:16:04;;;;;;;15.67;11.10;;;;;;;17.78;100.00;100043.53;5071747;28;20180;-72
2023/09/11 00:18:29;;;;;;;22.77;11.10;;;;;;;17.69;100.00;100039.94;5071506;28;20601;-71
2023/09/11 00:20:54;;;;;;;16.30;9.70;;;;;;;17.59;100.00;100040.72;5045637;28;20232;-69
2023/09/11 00:23:20;;;;;;;13.97;10.87;;;;;;;17.61;100.00;100039.75;5049073;28;20183;-70
2023/09/11 00:25:45;;;;;;;15.20;10.97;;;;;;;17.63;100.00;100038.66;5058868;28;20555;-70
2023/09/11 00:28:10;;;;;;;18.53;11.03;;;;;;;17.61;100.00;100034.56;5069299;28;20188;-70
2023/09/11 00:30:37;;;;;;;19.07;11.73;;;;;;;17.54;100.00;100036.88;5054781;28;20220;-71
2023/09/11 00:33:02;;;;;;;19.13;12.33;;;;;;;17.51;100.00;100029.31;5061970;28;20178;-71
2023/09/11 00:35:28;;;;;;;15.43;11.37;;;;;;;17.49;100.00;100029.44;5050512;28;20662;-71
2023/09/11 00:37:53;;;;;;;18.47;11.50;;;;;;;17.44;100.00;100026.41;5038895;28;20197;-71
2023/09/11 00:40:18;;;;;;;14.80;11.20;;;;;;;17.30;100.00;100029.34;5042155;28;20706;-71
2023/09/11 00:42:44;;;;;;;16.93;11.67;;;;;;;17.34;100.00;100026.38;5066741;28;20200;-72
2023/09/11 00:45:11;;;;;;;18.03;11.70;;;;;;;17.32;100.00;100022.25;5071521;28;20181;-71
2023/09/11 00:47:37;;;;;;;18.33;11.90;;;;;;;17.30;100.00;100022.38;5040991;28;20173;-71
2023/09/11 00:50:03;;;;;;;18.50;10.47;;;;;;;17.31;100.00;100025.81;5037656;28;20174;-71
2023/09/11 00:52:29;;;;;;;23.77;12.53;;;;;;;17.24;100.00;100023.72;5046115;28;20197;-71
2023/09/11 00:54:54;;;;;;;15.33;11.40;;;;;;;17.27;100.00;100027.84;5046855;28;20182;-70
2023/09/11 00:57:21;;;;;;;23.30;12.80;;;;;;;17.23;100.00;100024.66;5048426;28;20660;-70
2023/09/11 00:59:48;;;;;;;19.87;11.40;;;;;;;17.30;100.00;100022.38;5040652;28;20633;-71
2023/09/11 01:02:14;;;;;;;16.53;11.33;;;;;;;17.33;100.00;100018.69;5036410;28;20225;-71
2023/09/11 01:04:41;;;;;;;16.50;11.43;;;;;;;17.24;100.00;100010.72;5045838;28;20209;-70
2023/09/11 01:07:07;;;;;;;19.30;11.93;;;;;;;17.21;100.00;100010.97;5045332;28;20180;-70
2023/09/11 01:09:35;;;;;;;21.03;12.07;;;;;;;17.15;100.00;100014.06;5075032;28;20177;-71
2023/09/11 01:12:00;;;;;;;20.90;11.97;;;;;;;17.17;100.00;100012.19;5044214;28;20225;-71
2023/09/11 01:14:27;;;;;;;21.57;11.93;;;;;;;17.09;100.00;100007.63;5066814;28;20181;-70
2023/09/11 01:17:00;;;;;;;18.53;10.57;;;;;;;16.94;100.00;100001.94;5060222;28;20236;-70
2023/09/11 01:20:00;;;;;;;19.50;12.60;;;;;;;16.98;100.00;100001.66;5073628;28;20235;-69
2023/09/11 01:22:41;;;;;;;17.03;12.50;;;;;;;17.06;100.00;100004.47;5040355;28;20222;-71
2023/09/11 01:25:14;;;;;;;22.03;12.47;;;;;;;17.01;100.00;99998.84;5072845;28;20254;-71
2023/09/11 01:27:55;;;;;;;21.90;11.97;;;;;;;16.94;100.00;100003.69;5057611;28;20187;-71
2023/09/11 01:30:21;;;;;;;19.10;11.33;;;;;;;17.03;100.00;100004.72;5056938;28;20189;-70
2023/09/11 01:32:49;;;;;;;15.67;12.17;;;;;;;17.03;100.00;100005.56;5072185;28;20209;-71
2023/09/11 01:35:14;;;;;;;16.97;11.73;;;;;;;17.10;100.00;100005.84;5073062;28;20185;-71
2023/09/11 01:37:39;;;;;;;19.17;12.70;;;;;;;17.05;100.00;100006.22;5071952;28;20207;-70
2023/09/11 01:40:06;;;;;;;18.57;12.90;;;;;;;16.99;100.00;100000.72;5063445;28;20205;-70
2023/09/11 01:42:36;;;;;;;17.03;12.20;;;;;;;16.90;100.00;100002.28;5053913;28;20232;-71
2023/09/11 01:45:04;;;;;;;15.63;10.83;;;;;;;16.94;100.00;100003.69;5046179;28;20183;-70
2023/09/11 01:47:31;;;;;;;15.90;11.30;;;;;;;16.99;100.00;99998.94;5053835;28;20186;-70
2023/09/11 01:49:58;;;;;;;16.30;11.93;;;;;;;16.96;100.00;99999.22;5035194;28;20225;-71
2023/09/11 01:52:24;;;;;;;12.70;11.40;;;;;;;16.93;100.00;99999.44;5051919;28;20234;-70
2023/09/11 01:54:50;;;;;;;20.37;12.57;;;;;;;16.90;100.00;99997.91;5045258;28;20177;-71
2023/09/11 01:57:16;;;;;;;18.37;12.03;;;;;;;16.88;100.00;100007.63;5051215;28;20218;-70
2023/09/11 01:59:41;;;;;;;18.10;12.70;;;;;;;16.81;100.00;100005.63;5044853;28;20213;-71
2023/09/11 02:02:06;;;;;;;16.77;12.33;;;;;;;16.71;100.00;100005.59;5057617;28;20233;-71
2023/09/11 02:04:31;;;;;;;18.27;12.60;;;;;;;16.66;100.00;100002.50;5054082;28;20259;-71
2023/09/11 02:06:56;;;;;;;16.83;12.13;;;;;;;16.61;100.00;100013.31;5043016;28;20183;-71
2023/09/11 02:09:22;;;;;;;16.03;12.07;;;;;;;16.66;100.00;100005.13;5037815;28;20240;-71
2023/09/11 02:11:47;;;;;;;18.87;12.27;;;;;;;16.61;100.00;100011.53;5051623;28;20224;-71
2023/09/11 02:14:12;;;;;;;21.87;12.80;;;;;;;16.50;100.00;100014.16;5046046;28;20258;-71
2023/09/11 02:16:38;;;;;;;18.43;12.93;;;;;;;16.50;100.00;100013.34;5042629;28;20239;-71
2023/09/11 02:19:03;;;;;;;18.40;12.83;;;;;;;16.49;100.00;100015.09;5046762;28;20174;-72
2023/09/11 02:21:28;;;;;;;19.93;13.27;;;;;;;16.63;100.00;100003.59;5050171;28;20307;-71
2023/09/11 02:23:53;;;;;;;23.93;14.30;;;;;;;16.57;100.00;100017.91;5058249;28;20182;-70
2023/09/11 02:26:19;;;;;;;19.90;13.43;;;;;;;16.45;100.00;100014.53;5042281;28;20204;-72
2023/09/11 02:28:45;;;;;;;17.27;13.43;;;;;;;16.44;100.00;100015.47;5042738;28;20188;-69
2023/09/11 02:31:10;;;;;;;17.97;12.80;;;;;;;16.48;100.00;100016.06;5038006;28;20692;-70
2023/09/11 02:33:35;;;;;;;23.03;13.37;;;;;;;16.50;100.00;100014.16;5033164;28;20174;-71
2023/09/11 02:36:00;;;;;;;18.80;12.90;;;;;;;16.44;100.00;100012.06;5033221;28;20178;-70
2023/09/11 02:38:26;;;;;;;19.03;13.27;;;;;;;16.45;100.00;100006.75;5033601;28;20260;-70
2023/09/11 02:40:51;;;;;;;26.40;13.13;;;;;;;16.42;100.00;100012.19;5036417;28;20224;-70
2023/09/11 02:43:17;;;;;;;21.07;11.73;;;;;;;16.42;100.00;100008.75;5041766;28;20182;-71
2023/09/11 02:45:43;;;;;;;20.23;12.77;;;;;;;16.43;100.00;100010.41;5040960;28;20648;-71
2023/09/11 02:48:09;;;;;;;21.10;13.07;;;;;;;16.45;100.00;100005.94;5053433;28;20183;-70
2023/09/11 02:50:35;;;;;;;27.13;13.10;;;;;;;16.44;100.00;100004.28;5060566;28;20235;-71
2023/09/11 02:53:00;;;;;;;26.83;12.83;;;;;;;16.42;100.00;100004.41;5063629;28;20209;-71
2023/09/11 02:55:25;;;;;;;24.97;14.20;;;;;;;16.34;100.00;99993.81;5066765;28;20208;-71
2023/09/11 02:57:50;;;;;;;22.23;12.67;;;;;;;16.28;100.00;99994.31;5051595;28;20266;-71
2023/09/11 03:00:16;;;;;;;16.93;12.43;;;;;;;16.26;100.00;99991.84;5044654;28;20654;-70
2023/09/11 03:02:41;;;;;;;20.97;13.47;;;;;;;16.09;100.00;99990.59;5053839;28;20272;-70
2023/09/11 03:05:07;;;;;;;18.63;12.60;;;;;;;16.07;100.00;99992.47;5032098;28;20201;-71
2023/09/11 03:07:33;;;;;;;20.70;12.60;;;;;;;16.12;100.00;99990.34;5033655;28;20190;-71
2023/09/11 03:09:58;;;;;;;16.30;12.10;;;;;;;16.18;100.00;99989.03;5032085;28;20200;-69
2023/09/11 03:12:23;;;;;;;19.83;12.60;;;;;;;16.15;100.00;99986.69;5037783;28;20226;-71
2023/09/11 03:14:54;;;;;;;18.03;12.57;;;;;;;16.13;100.00;99989.38;5033130;28;20580;-70
2023/09/11 03:17:20;;;;;;;19.63;12.10;;;;;;;16.14;100.00;99991.03;5033284;28;20722;-70
2023/09/11 03:19:45;;;;;;;16.23;12.33;;;;;;;16.08;100.00;99993.31;5032873;28;20190;-70
2023/09/11 03:22:10;;;;;;;18.07;12.17;;;;;;;16.07;100.00;99989.88;5037779;28;20213;-71
2023/09/11 03:24:36;;;;;;;18.53;12.87;;;;;;;16.06;100.00;99990.00;5032523;28;20197;-71
2023/09/11 03:27:01;;;;;;;17.67;11.73;;;;;;;16.02;100.00;99988.59;5032193;28;20248;-71
2023/09/11 03:29:26;;;;;;;15.83;12.20;;;;;;;16.01;100.00;99985.16;5032674;28;20524;-70
2023/09/11 03:31:51;;;;;;;26.80;13.13;;;;;;;15.94;100.00;99977.06;5016445;28;20217;-71
2023/09/11 03:34:17;;;;;;;17.10;12.10;;;;;;;15.89;100.00;99986.97;5033689;28;20541;-70
2023/09/11 03:36:42;;;;;;;16.83;11.50;;;;;;;15.88;100.00;99977.53;5032613;28;20182;-70
2023/09/11 03:39:07;;;;;;;15.73;11.77;;;;;;;15.87;100.00;99978.47;5021800;28;20178;-70
2023/09/11 03:41:33;;;;;;;18.10;11.60;;;;;;;15.82;100.00;99973.66;5045884;28;20248;-71
2023/09/11 03:43:58;;;;;;;14.90;12.20;;;;;;;15.74;100.00;99972.56;5055879;28;20185;-70
2023/09/11 03:46:23;;;;;;;18.20;13.03;;;;;;;15.71;100.00;99975.41;5052048;28;20182;-70
2023/09/11 03:48:49;;;;;;;21.17;12.57;;;;;;;15.70;100.00;99981.53;5052114;28;20189;-71
2023/09/11 03:51:14;;;;;;;18.53;11.30;;;;;;;15.69;100.00;99978.16;5051149;28;20307;-69
2023/09/11 03:53:45;;;;;;;14.93;12.07;;;;;;;15.67;100.00;99976.63;5056750;28;20208;-69
2023/09/11 03:56:12;;;;;;;17.97;11.73;;;;;;;15.62;100.00;99979.56;5051514;28;20232;-71
2023/09/11 03:58:38;;;;;;;17.10;11.27;;;;;;;15.60;100.00;99984.88;5049028;28;20629;-70
2023/09/11 04:01:04;;;;;;;21.37;11.73;;;;;;;15.61;100.00;99980.50;5050224;28;20237;-71
2023/09/11 04:03:29;;;;;;;18.60;13.03;;;;;;;15.62;100.00;99976.97;5059981;28;20216;-71
2023/09/11 04:05:54;;;;;;;19.03;13.10;;;;;;;15.59;100.00;99966.81;5050622;28;20178;-70
2023/09/11 04:08:20;;;;;;;19.17;13.73;;;;;;;15.56;100.00;99972.25;5049803;28;20185;-71
2023/09/11 04:10:45;;;;;;;25.80;13.20;;;;;;;15.57;100.00;99972.13;5040867;28;20270;-70
2023/09/11 04:13:11;;;;;;;19.73;13.87;;;;;;;15.60;100.00;99966.72;5048624;28;20185;-72
2023/09/11 04:15:36;;;;;;;15.73;12.67;;;;;;;15.49;100.00;99974.47;5041352;28;20180;-70
2023/09/11 04:18:02;;;;;;;20.53;13.87;;;;;;;15.45;100.00;99973.06;5049759;28;20231;-70
2023/09/11 04:20:32;;;;;;;18.27;13.27;;;;;;;15.39;100.00;99973.56;5043571;28;20316;-72
2023/09/11 04:22:59;;;;;;;15.70;13.00;;;;;;;15.42;100.00;99975.91;5067865;28;20652;-71
2023/09/11 04:25:24;;;;;;;24.37;13.57;;;;;;;15.43;100.00;99968.03;5063042;28;20181;-71
2023/09/11 04:27:49;;;;;;;22.73;12.73;;;;;;;15.45;100.00;99973.06;5064410;28;20183;-72
2023/09/11 04:30:17;;;;;;;18.40;12.83;;;;;;;15.46;100.00;99974.72;5059546;28;20223;-71
2023/09/11 04:32:42;;;;;;;21.37;15.27;;;;;;;15.47;100.00;99977.19;5068000;28;20279;-71
2023/09/11 04:35:08;;;;;;;14.63;12.83;;;;;;;15.47;100.00;99974.59;5058837;28;20715;-72
2023/09/11 04:37:33;;;;;;;15.27;13.47;;;;;;;15.48;100.00;99975.44;5052990;28;20209;-71
2023/09/11 04:39:59;;;;;;;22.87;14.90;;;;;;;15.47;100.00;99981.56;5062535;28;20196;-70
2023/09/11 04:42:24;;;;;;;24.37;13.93;;;;;;;15.48;100.00;99971.06;5061793;28;20224;-71
2023/09/11 04:44:49;;;;;;;16.20;13.97;;;;;;;15.47;100.00;99982.38;5034821;28;20622;-71
2023/09/11 04:47:16;;;;;;;18.63;14.43;;;;;;;15.41;100.00;99980.25;5036353;28;20268;-71
2023/09/11 04:49:41;;;;;;;22.17;14.37;;;;;;;15.39;100.00;99974.38;5043348;28;20173;-70
2023/09/11 04:52:06;;;;;;;16.67;13.10;;;;;;;15.31;100.00;99982.72;5059734;28;20221;-71
2023/09/11 04:54:31;;;;;;;21.47;12.63;;;;;;;15.29;100.00;99976.03;5041766;28;20190;-71
2023/09/11 04:56:57;;;;;;;16.77;13.53;;;;;;;15.37;100.00;99976.25;5055055;28;20669;-71
2023/09/11 04:59:22;;;;;;;17.03;13.67;;;;;;;15.43;100.00;99983.56;5055282;28;20203;-71
2023/09/11 05:01:47;;;;;;;17.27;13.80;;;;;;;15.45;100.00;99984.25;5045340;28;20598;-71
2023/09/11 05:04:13;;;;;;;20.13;13.30;;;;;;;15.39;100.00;99989.09;5051655;28;20241;-71
2023/09/11 05:06:38;;;;;;;17.63;13.87;;;;;;;15.35;100.00;99992.88;5060094;28;20656;-71
2023/09/11 05:09:03;;;;;;;18.27;12.33;;;;;;;15.42;100.00;99987.09;5055058;28;20173;-71
2023/09/11 05:11:29;;;;;;;14.20;12.70;;;;;;;15.50;100.00;99983.91;5044217;28;20648;-71
2023/09/11 05:13:54;;;;;;;19.40;12.60;;;;;;;15.57;100.00;99979.09;5045922;28;20180;-72
2023/09/11 05:16:19;;;;;;;17.70;13.07;;;;;;;15.60;100.00;99989.22;5052388;28;20621;-71
2023/09/11 05:18:44;;;;;;;19.47;12.20;;;;;;;15.58;100.00;99985.91;5053572;28;20184;-71
2023/09/11 05:21:10;;;;;;;20.07;12.57;;;;;;;15.68;100.00;99991.19;5050261;28;20224;-71
2023/09/11 05:23:35;;;;;;;17.33;12.03;;;;;;;15.71;100.00;99986.59;5059569;28;20691;-70
2023/09/11 05:26:01;;;;;;;19.33;12.23;;;;;;;15.77;100.00;99990.50;5052600;28;20177;-71
2023/09/11 05:28:27;;;;;;;13.97;12.03;;;;;;;15.84;100.00;99983.94;5041555;28;20239;-71
2023/09/11 05:30:52;;;;;;;22.10;12.00;;;;;;;15.91;100.00;99984.25;5056704;28;20306;-71
2023/09/11 05:33:17;;;;;;;15.43;11.37;;;;;;;15.97;100.00;99992.38;5069728;28;20181;-72
2023/09/11 05:35:45;;;;;;;16.97;12.07;;;;;;;16.02;100.00;99988.59;5059275;28;20335;-71
2023/09/11 05:38:11;;;;;;;18.90;11.50;;;;;;;16.09;100.00;99990.59;5061171;28;20291;-71
2023/09/11 05:40:36;;;;;;;19.23;15.20;;;;;;;16.17;100.00;99989.97;5048745;28;20237;-70
2023/09/11 05:43:01;;;;;;;16.60;11.80;;;;;;;16.25;100.00;99992.78;5044493;28;20186;-70
2023/09/11 05:45:27;;;;;;;19.73;12.10;;;;;;;16.37;100.00;99988.38;5034413;28;20486;-70
2023/09/11 05:47:52;;;;;;;21.33;12.47;;;;;;;16.42;100.00;99988.84;5033900;28;20182;-70
2023/09/11 05:50:17;;;;;;;16.50;12.83;;;;;;;16.43;100.00;99987.03;5021239;28;20185;-70
2023/09/11 05:52:42;;;;;;;17.17;11.53;;;;;;;16.57;100.00;99988.50;5046410;28;20182;-71
2023/09/11 05:55:08;;;;;;;17.43;12.53;;;;;;;16.73;100.00;99993.28;5034409;28;20174;-70
2023/09/11 05:57:33;;;;;;;19.23;12.43;;;;;;;16.86;100.00;99996.50;5022273;28;20688;-70
2023/09/11 05:59:58;;;;;;;18.23;13.13;;;;;;;17.04;100.00;99990.75;5022464;28;20179;-71
2023/09/11 06:02:24;;;;;;;20.27;12.53;;;;;;;17.11;100.00;99991.91;5037517;28;20623;-70
2023/09/11 06:04:49;;;;;;;18.27;12.43;;;;;;;17.21;100.00;99994.56;5034743;28;20201;-71
2023/09/11 06:07:16;;;;;;;26.93;14.33;;;;;;;17.15;100.00;99989.88;5050333;28;20190;-70
2023/09/11 06:09:41;;;;;;;22.73;12.83;;;;;;;17.35;100.00;99994.22;5034460;28;20178;-70
2023/09/11 06:12:07;;;;;;;20.93;12.67;;;;;;;17.52;100.00;100000.56;5023109;28;20230;-70
2023/09/11 06:14:32;;;;;;;25.17;12.37;;;;;;;17.56;100.00;100001.13;5033843;28;20193;-70
2023/09/11 06:16:58;;;;;;;23.90;11.77;;;;;;;17.77;100.00;100001.06;5033308;28;20227;-71
2023/09/11 06:19:23;;;;;;;30.53;12.87;;;;;;;17.97;100.00;100001.16;5033642;28;20637;-71
2023/09/11 06:21:48;;;;;;;21.60;12.87;;;;;;;18.17;100.00;99997.63;5051120;28;20726;-72
2023/09/11 06:24:14;;;;;;;19.43;11.47;;;;;;;18.19;100.00;100006.09;5055271;28;20280;-70
2023/09/11 06:26:41;;;;;;;20.80;11.20;;;;;;;18.43;100.00;100001.47;5053180;28;20291;-71
2023/09/11 06:29:06;;;;;;;28.07;12.30;;;;;;;18.57;100.00;100006.28;5053604;28;20185;-70
2023/09/11 06:31:32;;;;;;;15.57;10.60;;;;;;;18.48;100.00;100009.69;5031986;28;20221;-71
2023/09/11 06:33:57;;;;;;;22.50;11.10;;;;;;;18.73;100.00;99999.66;5026471;28;20649;-71
2023/09/11 06:36:22;;;;;;;20.23;10.90;;;;;;;18.93;100.00;100011.75;5028646;28;20288;-70
2023/09/11 06:38:48;;;;;;;16.63;9.30;;;;;;;19.38;100.00;100006.81;5040202;28;20186;-71
2023/09/11 06:41:13;;;;;;;12.80;9.17;;;;;;;20.09;100.00;100008.78;5045080;28;20237;-71
2023/09/11 06:43:38;;;;;;;15.33;9.07;;;;;;;20.81;100.00;100002.72;5039042;28;20178;-69
2023/09/11 06:46:04;;;;;;;17.77;9.33;;;;;;;21.56;100.00;100001.38;5033746;28;20214;-70
2023/09/11 06:48:29;;;;;;;19.77;9.70;;;;;;;22.87;100.00;99995.50;5056433;28;20512;-71
2023/09/11 06:50:54;;;;;;;13.43;7.50;;;;;;;24.50;100.00;100001.94;5038263;28;20339;-70
2023/09/11 06:53:20;;;;;;;15.40;8.20;;;;;;;25.83;100.00;100001.34;5061213;28;20188;-70
2023/09/11 06:55:48;;;;;;;20.60;8.13;;;;;;;27.14;96.07;100012.59;5061155;28;20212;-70
2023/09/11 06:58:14;;;;;;;15.25;8.00;;;;;;;28.01;88.11;100005.03;5032992;28;20584;-70
2023/09/11 07:00:40;;;;;;;15.93;7.78;;;;;;;28.60;83.12;100008.72;5040196;28;20312;-70
2023/09/11 07:03:05;;;;;;;15.65;6.70;;;;;;;29.23;78.52;100014.56;5063303;28;20263;-71
2023/09/11 07:05:31;;;;;;;16.48;6.60;;;;;;;30.23;70.75;100022.03;5065865;28;20269;-70
2023/09/11 07:07:56;;;;;;;16.45;6.30;;;;;;;30.71;63.09;100025.13;5052509;28;20636;-70
2023/09/11 07:10:23;;;;;;;22.50;6.90;;;;;;;30.93;59.22;100028.19;5045074;28;20228;-71
2023/09/11 07:12:49;;;;;;;17.80;6.95;;;;;;;31.98;53.98;100025.53;5052973;28;20197;-73
2023/09/11 07:15:15;;;;;;;19.15;6.97;;;;;;;31.11;57.03;100023.94;5068246;28;20185;-72
2023/09/11 07:17:40;;;;;;;14.77;7.20;;;;;;;31.19;61.09;100023.66;5059312;28;20233;-69
2023/09/11 07:20:06;;;;;;;16.13;7.50;;;;;;;31.48;56.79;100014.09;5042413;28;20649;-71
2023/09/11 07:22:32;;;;;;;22.33;8.05;;;;;;;32.31;52.97;100016.22;5055352;28;20198;-72
2023/09/11 07:24:57;;;;;;;18.08;6.75;;;;;;;32.22;53.72;100017.63;5068173;28;20632;-71
2023/09/11 07:27:26;;;;;;;14.63;6.95;;;;;;;32.98;50.25;100015.91;5071779;28;20185;-71
2023/09/11 07:29:51;;;;;;;22.45;7.30;;;;;;;33.06;47.89;100020.06;5058066;28;20187;-71
2023/09/11 07:32:16;;;;;;;17.08;7.07;;;;;;;32.22;51.29;100013.09;5025648;28;20221;-71
2023/09/11 07:34:42;;;;;;;22.40;7.68;;;;;;;31.35;56.25;100008.94;5058427;28;20193;-71
2023/09/11 07:37:07;;;;;;;17.13;6.95;;;;;;;31.45;58.16;100000.44;5032617;28;20198;-71
2023/09/11 07:39:33;;;;;;;18.05;8.27;;;;;;;30.20;64.11;100006.53;5070191;28;20179;-71
2023/09/11 07:41:58;;;;;;;13.75;7.32;;;;;;;30.59;64.74;100015.22;5047981;28;20707;-71
2023/09/11 07:44:23;;;;;;;20.60;8.15;;;;;;;31.63;58.43;100010.22;5046252;28;20182;-70
2023/09/11 07:46:48;;;;;;;16.15;7.15;;;;;;;31.21;60.74;100013.63;5042959;28;20178;-70
2023/09/11 07:49:14;;;;;;;17.85;6.85;;;;;;;32.46;55.08;100015.78;5048226;28;20181;-71
2023/09/11 07:51:39;;;;;;;13.68;7.28;;;;;;;33.33;49.23;100016.06;5039832;28;20583;-70
2023/09/11 07:54:04;;;;;;;19.17;7.72;;;;;;;32.86;49.30;100017.78;5031722;28;20182;-69
2023/09/11 07:56:30;;;;;;;21.25;7.28;;;;;;;32.68;54.20;100016.00;5031863;28;20519;-70
2023/09/11 07:58:55;;;;;;;15.88;7.82;;;;;;;33.90;47.41;100013.41;5031903;28;20613;-70
2023/09/11 08:01:21;;;;;;;16.67;7.70;;;;;;;34.09;45.58;100021.19;5025775;28;20230;-68
2023/09/11 08:03:47;;;;;;;22.80;7.47;;;;;;;33.49;47.42;100020.63;5029507;28;20300;-71
2023/09/11 08:06:13;;;;;;;13.65;7.63;;;;;;;33.72;47.58;100022.41;5031803;28;20212;-71
2023/09/11 08:08:39;;;;;;;17.88;7.40;;;;;;;34.40;44.12;100019.84;5031606;28;20626;-71
2023/09/11 08:11:19;;;;;;;19.80;7.72;;;;;;;33.58;46.90;100026.41;5032017;28;20248;-71
2023/09/11 08:13:50;;;;;;;13.68;7.43;;;;;;;34.57;44.15;100013.66;5024467;28;20216;-71
2023/09/11 08:16:16;;;;;;;20.48;7.60;;;;;;;34.87;42.75;100018.66;5031255;28;20632;-69
2023/09/11 08:18:42;;;;;;;18.17;8.00;;;;;;;31.62;53.24;100013.91;5031304;28;20193;-69
2023/09/11 08:21:07;;;;;;;14.52;7.38;;;;;;;31.39;57.84;100016.25;5038871;28;20232;-72
2023/09/11 08:23:32;;;;;;;15.60;7.95;;;;;;;29.69;72.32;100013.56;5044544;28;20189;-70
2023/09/11 08:26:01;;;;;;;20.08;7.22;;;;;;;30.59;65.16;100019.75;5050611;28;20184;-69
2023/09/11 08:28:26;;;;;;;15.63;8.50;;;;;;;31.68;55.91;100013.03;5049841;28;20181;-69
2023/09/11 08:30:52;;;;;;;20.23;8.20;;;;;;;32.17;53.10;100012.94;5036334;28;20228;-71
2023/09/11 08:33:17;;;;;;;20.00;7.50;;;;;;;32.91;49.32;100015.22;5025054;28;20636;-70
2023/09/11 08:35:43;;;;;;;23.20;7.88;;;;;;;33.44;47.56;100021.38;5020159;28;20189;-70
2023/09/11 08:38:08;;;;;;;25.08;7.43;;;;;;;33.73;47.41;100029.34;5038288;28;20688;-69
2023/09/11 08:40:33;;;;;;;20.95;8.85;;;;;;;32.39;50.38;100015.91;5034001;28;20714;-71
2023/09/11 08:42:59;;;;;;;15.55;8.20;;;;;;;31.20;61.41;100017.31;5063656;28;20633;-69
2023/09/11 08:45:26;;;;;;;17.75;7.95;;;;;;;32.92;53.75;100011.50;5051231;28;20533;-70
2023/09/11 08:47:55;;;;;;;13.73;7.10;;;;;;;35.69;42.01;100023.34;5056799;28;20181;-70
2023/09/11 08:50:24;;;;;;;19.88;7.47;;;;;;;36.07;38.89;100024.22;5060952;28;20198;-70
2023/09/11 08:52:50;;;;;;;26.00;7.95;;;;;;;36.56;37.83;100025.13;5056470;28;20581;-70
2023/09/11 08:55:18;;;;;;;23.58;7.80;;;;;;;37.05;36.93;100027.53;5057310;28;20190;-69
2023/09/11 08:57:43;;;;;;;20.75;7.50;;;;;;;37.92;35.53;100024.28;5050946;28;20193;-70
2023/09/11 09:00:11;;;;;;;19.05;7.05;;;;;;;38.27;33.54;100022.63;5041719;28;20173;-70
2023/09/11 09:02:37;;;;;;;20.90;7.88;;;;;;;38.49;33.91;100020.75;5057720;28;20182;-70
2023/09/11 09:05:04;;;;;;;13.50;6.68;;;;;;;38.54;32.68;100018.03;5057369;28;20223;-70
2023/09/11 09:07:31;;;;;;;15.52;7.80;;;;;;;36.69;36.33;100019.28;5070399;28;20221;-70
2023/09/11 09:09:57;;;;;;;14.07;7.35;;;;;;;35.69;37.61;100005.41;5055955;28;20430;-69
2023/09/11 09:12:25;;;;;;;20.52;7.45;;;;;;;37.57;35.46;100004.38;5048510;28;20222;-69
2023/09/11 09:14:50;;;;;;;18.92;7.40;;;;;;;36.67;37.62;100000.00;5059149;28;20192;-70
2023/09/11 09:17:15;;;;;;;19.48;7.35;;;;;;;36.74;36.29;99999.75;5070792;28;20244;-70
2023/09/11 09:19:41;;;;;;;16.83;7.55;;;;;;;38.38;34.26;100006.53;5056995;28;20178;-70
2023/09/11 09:22:06;;;;;;;19.27;6.50;;;;;;;39.70;31.74;100006.22;5059034;28;20228;-71
2023/09/11 09:24:35;;;;;;;15.80;6.53;;;;;;;37.15;34.28;99999.94;5056467;28;20627;-70
2023/09/11 09:27:03;;;;;;;16.02;6.43;;;;;;;37.06;35.59;99996.97;5054731;28;20431;-69
2023/09/11 09:29:36;;;;;;;19.73;7.00;;;;;;;37.19;36.36;100002.91;5054103;28;20692;-69
2023/09/11 09:32:03;;;;;;;18.33;7.10;;;;;;;35.25;39.95;99992.09;5058869;28;20216;-69
2023/09/11 09:34:29;;;;;;;20.13;7.45;;;;;;;35.36;42.31;99993.00;5047688;28;20205;-70
2023/09/11 09:36:55;;;;;;;13.32;6.15;;;;;;;36.19;37.54;99997.28;5043554;28;20239;-69
2023/09/11 09:39:21;;;;;;;16.33;7.25;;;;;;;36.88;35.03;99995.56;5051040;28;20220;-70
2023/09/11 09:41:54;;;;;;;14.82;6.47;;;;;;;35.66;38.18;99999.75;5036094;28;20245;-70
2023/09/11 09:44:30;;;;;;;18.65;6.82;;;;;;;36.91;37.14;99988.88;5051973;28;20193;-71
2023/09/11 09:46:56;;;;;;;13.57;6.38;;;;;;;37.48;33.65;99987.19;5054241;28;20667;-70
2023/09/11 09:49:22;;;;;;;13.13;6.32;;;;;;;37.91;32.58;99995.03;5062211;28;20178;-71
2023/09/11 09:51:48;;;;;;;20.23;6.63;;;;;;;37.54;33.32;99993.38;5049202;28;20250;-71
2023/09/11 09:54:13;;;;;;;14.73;6.18;;;;;;;38.34;32.79;99987.47;5042217;28;20173;-71
2023/09/11 09:56:39;;;;;;;16.08;6.53;;;;;;;38.88;31.74;99990.56;5053851;28;20251;-71
2023/09/11 09:59:04;;;;;;;15.70;6.10;;;;;;;39.65;30.40;99992.00;5058747;28;20271;-70
2023/09/11 10:01:30;;;;;;;21.05;6.47;;;;;;;40.05;29.58;99986.56;5050735;28;20371;-70
2023/09/11 10:03:55;;;;;;;12.88;6.22;;;;;;;38.62;31.08;99990.63;5061771;28;20281;-71
2023/09/11 10:19:49;;;;;;;13.63;6.40;;;;;;;38.69;31.87;99971.50;5011334;28;20521;-68
2023/09/11 10:22:14;;;;;;;23.42;6.60;;;;;;;37.92;33.17;99954.50;5055146;28;20228;-70
2023/09/11 10:24:39;;;;;;;15.25;6.72;;;;;;;34.93;38.02;99952.72;5052915;28;20192;-71
2023/09/11 10:27:04;;;;;;;18.42;6.35;;;;;;;36.54;37.52;99946.91;5053148;28;20181;-72
2023/09/11 10:29:46;;;;;;;14.55;6.68;;;;;;;35.19;38.65;99940.44;5052918;28;20731;-71
2023/09/11 10:32:36;;;;;;;14.50;6.00;;;;;;;33.87;41.95;99936.53;5057825;28;20240;-70
2023/09/11 10:35:04;;;;;;;18.85;6.32;;;;;;;33.06;45.57;99931.31;5053399;28;20268;-70
2023/09/11 10:37:31;;;;;;;20.58;6.75;;;;;;;32.40;53.79;99929.69;5052377;28;20216;-70
2023/09/11 10:39:59;;;;;;;17.10;6.88;;;;;;;31.65;64.26;99918.59;5049668;28;20193;-69
2023/09/11 10:42:24;;;;;;;20.95;7.05;;;;;;;31.36;60.30;99922.88;5038210;28;20369;-71
2023/09/11 10:44:52;;;;;;;18.63;6.70;;;;;;;30.74;64.04;99914.00;5033593;28;20201;-71
2023/09/11 10:47:19;;;;;;;19.40;6.70;;;;;;;29.59;72.31;99915.97;5033377;28;20186;-71
2023/09/11 10:49:48;;;;;;;18.60;6.13;;;;;;;28.92;76.14;99904.88;5033161;28;20220;-71
2023/09/11 10:52:15;;;;;;;15.80;6.00;;;;;;;29.09;76.18;99891.97;5037221;28;20294;-71
2023/09/11 10:54:40;;;;;;;21.05;6.40;;;;;;;28.98;74.14;99891.59;5032636;28;20190;-70
2023/09/11 10:57:05;;;;;;;16.92;5.90;;;;;;;29.11;72.20;99897.84;5032564;28;20248;-69
2023/09/11 10:59:32;;;;;;;18.52;6.13;;;;;;;29.23;79.31;99890.06;5032803;28;20197;-70
2023/09/11 11:01:58;;;;;;;25.85;6.50;;;;;;;29.11;77.65;99897.84;5052337;28;20228;-69
2023/09/11 11:04:24;;;;;;;18.63;6.70;;;;;;;28.89;78.95;99887.56;5053083;28;20204;-71
2023/09/11 11:06:53;;;;;;;18.67;6.20;;;;;;;28.68;81.34;99888.66;5038148;28;20309;-71
2023/09/11 11:09:48;;;;;;;18.33;6.60;;;;;;;28.76;78.23;99883.13;5033448;28;20178;-70
2023/09/11 11:12:30;;;;;;;21.25;7.00;;;;;;;28.22;79.71;99882.44;5043939;28;20222;-70
2023/09/11 11:15:18;;;;;;;13.02;6.13;;;;;;;28.42;80.94;99882.38;5038915;28;20223;-69
2023/09/11 11:17:43;;;;;;;21.88;6.72;;;;;;;28.38;84.90;99885.66;5033791;28;20206;-70
2023/09/11 11:20:09;;;;;;;13.20;6.20;;;;;;;28.37;85.08;99879.56;5030834;28;20267;-70
2023/09/11 11:22:39;;;;;;;18.88;6.53;;;;;;;28.44;87.37;99884.81;5054689;28;20567;-69